Hauptseite
METAR-TAF:

METAR-TAF

Flughäfen :

Flughafen Fuaʻamotu

Tongatapu, Tonga

Breite: 21-14S, Länge: 175-09W, Höhe: 38 m

Beobachtung

Neuester Wetterbericht von vor 12 Minuten, um 18:00 UTC
Windstille
Temperatur 18°C
Luftfeuchtigkeit 94%
Luftdruck 1016 hPa
Sichtweite 10 km oder mehr
Leicht bewölkt in der Höhe von 1600 ft
Aufgelockert bewölkt in der Höhe von 4000 ft

METAR: NFTF 061800Z 00000KT 9999 FEW016 SCT040 18/17 Q1016

Zeit: 07:12 (18:12 UTC)

Prognose

Neuester Wetterbericht von vor 1 Stunde und 7 Minuten, um 17:05 UTC
Gültige Prognose vom 06 um 18 UTC bis 07 um 18 UTC
Wind 6 kt aus Süd/Südost
Sichtweite 10 km oder mehr
Leicht bewölkt in der Höhe von 1500 ft
Durchbrochene Bewölkung in der Höhe von 4000 ft

TAF: NFTF 061705Z 0618/0718 15006KT 9999 FEW015 BKN040

Wetterbeobachtungen und Prognosen von mehr als 4000 Flughäfen (METAR und TAF Bericht).

Die verfügbaren Stationen werden durch gelbe und rote Markierungen auf der Karte dargestellt.

Führen Sie die Maus auf sie, um den Namen der Station zu sehen.

Darauf klicken, um die Beobachtung von Wetterbeobachtungen und Prognosen zu sehen.

Um die Karte zu ändern : klicken Sie auf den grünen Tasten mit einem schwarzen Kreuz Zum Vergrößern, auf den grünen Button mit einem Gedankenstrich zu verkleinern, oder auf die grünen Pfeile für benachbarte Karten.


METAR-TAF: